sensor_id;sensor_type;location;lat;lon;timestamp;P1;durP1;ratioP1;P2;durP2;ratioP2
16286;SDS011;8251;53.568;10.018;2023-08-24T00:00:46;6.20;;;2.30;;
16286;SDS011;8251;53.568;10.018;2023-08-24T00:03:14;6.53;;;2.40;;
16286;SDS011;8251;53.568;10.018;2023-08-24T00:05:41;5.57;;;2.10;;
16286;SDS011;8251;53.568;10.018;2023-08-24T00:08:08;5.67;;;2.20;;
16286;SDS011;8251;53.568;10.018;2023-08-24T00:10:36;4.03;;;1.67;;
16286;SDS011;8251;53.568;10.018;2023-08-24T00:13:04;5.07;;;2.00;;
16286;SDS011;8251;53.568;10.018;2023-08-24T00:15:31;5.10;;;2.10;;
16286;SDS011;8251;53.568;10.018;2023-08-24T00:17:57;4.63;;;1.73;;
16286;SDS011;8251;53.568;10.018;2023-08-24T00:20:26;5.73;;;2.13;;
16286;SDS011;8251;53.568;10.018;2023-08-24T00:22:53;3.13;;;2.07;;
16286;SDS011;8251;53.568;10.018;2023-08-24T00:25:20;4.23;;;2.27;;
16286;SDS011;8251;53.568;10.018;2023-08-24T00:27:47;4.00;;;2.20;;
16286;SDS011;8251;53.568;10.018;2023-08-24T00:30:14;5.93;;;2.50;;
16286;SDS011;8251;53.568;10.018;2023-08-24T00:32:42;4.35;;;2.20;;
16286;SDS011;8251;53.568;10.018;2023-08-24T00:35:09;5.18;;;1.70;;
16286;SDS011;8251;53.568;10.018;2023-08-24T00:37:38;4.87;;;2.07;;
16286;SDS011;8251;53.568;10.018;2023-08-24T00:40:05;6.22;;;2.20;;
16286;SDS011;8251;53.568;10.018;2023-08-24T00:42:36;5.87;;;2.20;;
16286;SDS011;8251;53.568;10.018;2023-08-24T00:45:05;5.27;;;1.87;;
16286;SDS011;8251;53.568;10.018;2023-08-24T00:47:34;5.30;;;1.80;;
16286;SDS011;8251;53.568;10.018;2023-08-24T00:50:02;6.20;;;2.10;;
16286;SDS011;8251;53.568;10.018;2023-08-24T00:52:31;5.80;;;2.00;;
16286;SDS011;8251;53.568;10.018;2023-08-24T00:55:00;4.00;;;1.93;;
16286;SDS011;8251;53.568;10.018;2023-08-24T00:57:28;5.17;;;1.77;;
16286;SDS011;8251;53.568;10.018;2023-08-24T00:59:55;5.67;;;2.13;;
16286;SDS011;8251;53.568;10.018;2023-08-24T01:02:23;4.93;;;1.80;;
16286;SDS011;8251;53.568;10.018;2023-08-24T01:04:49;3.93;;;1.80;;
16286;SDS011;8251;53.568;10.018;2023-08-24T01:07:16;7.57;;;2.90;;
16286;SDS011;8251;53.568;10.018;2023-08-24T01:09:44;4.20;;;1.87;;
16286;SDS011;8251;53.568;10.018;2023-08-24T01:12:15;4.57;;;1.63;;
16286;SDS011;8251;53.568;10.018;2023-08-24T01:14:50;3.60;;;1.77;;
16286;SDS011;8251;53.568;10.018;2023-08-24T01:17:26;3.43;;;1.90;;
16286;SDS011;8251;53.568;10.018;2023-08-24T01:19:56;5.40;;;1.67;;
16286;SDS011;8251;53.568;10.018;2023-08-24T01:22:30;7.33;;;1.67;;
16286;SDS011;8251;53.568;10.018;2023-08-24T01:25:01;1.87;;;1.40;;
16286;SDS011;8251;53.568;10.018;2023-08-24T01:27:35;3.13;;;1.40;;
16286;SDS011;8251;53.568;10.018;2023-08-24T01:30:03;2.77;;;1.47;;
16286;SDS011;8251;53.568;10.018;2023-08-24T01:32:31;5.47;;;1.87;;
16286;SDS011;8251;53.568;10.018;2023-08-24T01:34:59;3.20;;;1.70;;
16286;SDS011;8251;53.568;10.018;2023-08-24T01:37:27;4.63;;;2.30;;
16286;SDS011;8251;53.568;10.018;2023-08-24T01:39:56;5.47;;;2.13;;
16286;SDS011;8251;53.568;10.018;2023-08-24T01:42:35;6.90;;;2.20;;
16286;SDS011;8251;53.568;10.018;2023-08-24T01:45:06;6.10;;;2.93;;
16286;SDS011;8251;53.568;10.018;2023-08-24T01:47:34;2.93;;;2.00;;
16286;SDS011;8251;53.568;10.018;2023-08-24T01:50:03;5.13;;;2.00;;
16286;SDS011;8251;53.568;10.018;2023-08-24T01:52:31;8.33;;;2.43;;
16286;SDS011;8251;53.568;10.018;2023-08-24T01:54:58;5.17;;;2.63;;
16286;SDS011;8251;53.568;10.018;2023-08-24T01:57:25;7.30;;;2.50;;
16286;SDS011;8251;53.568;10.018;2023-08-24T01:59:53;23.00;;;2.77;;
16286;SDS011;8251;53.568;10.018;2023-08-24T02:02:20;8.90;;;2.63;;
16286;SDS011;8251;53.568;10.018;2023-08-24T02:04:47;5.00;;;2.50;;
16286;SDS011;8251;53.568;10.018;2023-08-24T02:07:14;8.53;;;3.27;;
16286;SDS011;8251;53.568;10.018;2023-08-24T02:09:41;2.80;;;2.13;;
16286;SDS011;8251;53.568;10.018;2023-08-24T02:12:08;11.80;;;2.50;;
16286;SDS011;8251;53.568;10.018;2023-08-24T02:14:34;5.77;;;2.40;;
16286;SDS011;8251;53.568;10.018;2023-08-24T02:17:03;5.13;;;2.90;;
16286;SDS011;8251;53.568;10.018;2023-08-24T02:19:30;5.83;;;2.83;;
16286;SDS011;8251;53.568;10.018;2023-08-24T02:21:57;5.03;;;2.80;;
16286;SDS011;8251;53.568;10.018;2023-08-24T02:24:24;5.40;;;2.57;;
16286;SDS011;8251;53.568;10.018;2023-08-24T02:26:51;5.87;;;3.67;;
16286;SDS011;8251;53.568;10.018;2023-08-24T02:29:17;6.53;;;2.50;;
16286;SDS011;8251;53.568;10.018;2023-08-24T02:31:44;7.07;;;2.53;;
16286;SDS011;8251;53.568;10.018;2023-08-24T02:34:13;7.83;;;3.67;;
16286;SDS011;8251;53.568;10.018;2023-08-24T02:36:39;5.33;;;3.10;;
16286;SDS011;8251;53.568;10.018;2023-08-24T02:39:06;8.33;;;3.13;;
16286;SDS011;8251;53.568;10.018;2023-08-24T02:41:33;6.97;;;2.80;;
16286;SDS011;8251;53.568;10.018;2023-08-24T02:44:01;6.83;;;3.40;;
16286;SDS011;8251;53.568;10.018;2023-08-24T02:46:28;6.73;;;3.60;;
16286;SDS011;8251;53.568;10.018;2023-08-24T02:48:55;4.87;;;3.47;;
16286;SDS011;8251;53.568;10.018;2023-08-24T02:51:23;6.30;;;3.57;;
16286;SDS011;8251;53.568;10.018;2023-08-24T02:53:50;7.67;;;3.47;;
16286;SDS011;8251;53.568;10.018;2023-08-24T02:56:17;6.33;;;3.40;;
16286;SDS011;8251;53.568;10.018;2023-08-24T02:58:44;8.73;;;3.50;;
16286;SDS011;8251;53.568;10.018;2023-08-24T03:01:11;8.23;;;4.00;;
16286;SDS011;8251;53.568;10.018;2023-08-24T03:03:38;7.23;;;3.47;;
16286;SDS011;8251;53.568;10.018;2023-08-24T03:06:05;5.10;;;3.30;;
16286;SDS011;8251;53.568;10.018;2023-08-24T03:08:34;5.13;;;3.10;;
16286;SDS011;8251;53.568;10.018;2023-08-24T03:11:02;7.20;;;3.73;;
16286;SDS011;8251;53.568;10.018;2023-08-24T03:13:30;5.50;;;3.40;;
16286;SDS011;8251;53.568;10.018;2023-08-24T03:15:57;8.97;;;3.97;;
16286;SDS011;8251;53.568;10.018;2023-08-24T03:18:28;6.03;;;3.30;;
16286;SDS011;8251;53.568;10.018;2023-08-24T03:20:56;4.87;;;3.40;;
16286;SDS011;8251;53.568;10.018;2023-08-24T03:23:23;5.40;;;3.17;;
16286;SDS011;8251;53.568;10.018;2023-08-24T03:25:52;5.50;;;3.30;;
16286;SDS011;8251;53.568;10.018;2023-08-24T03:28:19;6.87;;;3.03;;
16286;SDS011;8251;53.568;10.018;2023-08-24T03:30:46;6.63;;;3.17;;
16286;SDS011;8251;53.568;10.018;2023-08-24T03:33:15;4.97;;;3.57;;
16286;SDS011;8251;53.568;10.018;2023-08-24T03:35:42;5.23;;;3.97;;
16286;SDS011;8251;53.568;10.018;2023-08-24T03:38:09;6.83;;;3.23;;
16286;SDS011;8251;53.568;10.018;2023-08-24T03:40:36;7.70;;;3.17;;
16286;SDS011;8251;53.568;10.018;2023-08-24T03:43:04;5.70;;;2.90;;
16286;SDS011;8251;53.568;10.018;2023-08-24T03:45:31;6.40;;;3.53;;
16286;SDS011;8251;53.568;10.018;2023-08-24T03:47:58;5.70;;;3.27;;
16286;SDS011;8251;53.568;10.018;2023-08-24T03:50:25;12.97;;;3.87;;
16286;SDS011;8251;53.568;10.018;2023-08-24T03:52:52;8.90;;;3.10;;
16286;SDS011;8251;53.568;10.018;2023-08-24T03:55:20;5.53;;;3.80;;
16286;SDS011;8251;53.568;10.018;2023-08-24T03:57:48;8.07;;;3.43;;
16286;SDS011;8251;53.568;10.018;2023-08-24T04:00:16;8.87;;;3.80;;
16286;SDS011;8251;53.568;10.018;2023-08-24T04:02:43;7.17;;;3.30;;
16286;SDS011;8251;53.568;10.018;2023-08-24T04:05:10;11.63;;;4.00;;
16286;SDS011;8251;53.568;10.018;2023-08-24T04:07:37;8.33;;;4.27;;
16286;SDS011;8251;53.568;10.018;2023-08-24T04:10:06;7.90;;;3.33;;
16286;SDS011;8251;53.568;10.018;2023-08-24T04:12:33;6.23;;;3.57;;
16286;SDS011;8251;53.568;10.018;2023-08-24T04:15:01;6.03;;;3.50;;
16286;SDS011;8251;53.568;10.018;2023-08-24T04:17:29;8.10;;;3.23;;
16286;SDS011;8251;53.568;10.018;2023-08-24T04:19:56;10.70;;;4.10;;
16286;SDS011;8251;53.568;10.018;2023-08-24T04:22:23;7.73;;;3.80;;
16286;SDS011;8251;53.568;10.018;2023-08-24T04:24:50;7.03;;;4.23;;
16286;SDS011;8251;53.568;10.018;2023-08-24T04:27:17;7.40;;;3.27;;
16286;SDS011;8251;53.568;10.018;2023-08-24T04:29:44;6.53;;;3.37;;
16286;SDS011;8251;53.568;10.018;2023-08-24T04:32:10;5.07;;;4.00;;
16286;SDS011;8251;53.568;10.018;2023-08-24T04:34:39;10.27;;;4.87;;
16286;SDS011;8251;53.568;10.018;2023-08-24T04:37:06;7.17;;;3.50;;
16286;SDS011;8251;53.568;10.018;2023-08-24T04:39:34;8.07;;;3.90;;
16286;SDS011;8251;53.568;10.018;2023-08-24T04:42:01;7.63;;;4.03;;
16286;SDS011;8251;53.568;10.018;2023-08-24T04:44:28;7.07;;;3.37;;
16286;SDS011;8251;53.568;10.018;2023-08-24T04:46:55;6.53;;;3.20;;
16286;SDS011;8251;53.568;10.018;2023-08-24T04:49:31;7.40;;;3.70;;
16286;SDS011;8251;53.568;10.018;2023-08-24T04:51:59;8.70;;;3.73;;
16286;SDS011;8251;53.568;10.018;2023-08-24T04:54:26;8.30;;;3.30;;
16286;SDS011;8251;53.568;10.018;2023-08-24T04:56:53;6.57;;;3.57;;
16286;SDS011;8251;53.568;10.018;2023-08-24T04:59:20;4.90;;;3.33;;
16286;SDS011;8251;53.568;10.018;2023-08-24T05:01:46;4.73;;;3.17;;
16286;SDS011;8251;53.568;10.018;2023-08-24T05:04:13;10.33;;;3.40;;
16286;SDS011;8251;53.568;10.018;2023-08-24T05:06:40;8.13;;;3.87;;
16286;SDS011;8251;53.568;10.018;2023-08-24T05:09:08;8.60;;;3.73;;
16286;SDS011;8251;53.568;10.018;2023-08-24T05:11:35;6.70;;;2.93;;
16286;SDS011;8251;53.568;10.018;2023-08-24T05:14:02;7.03;;;3.67;;
16286;SDS011;8251;53.568;10.018;2023-08-24T05:16:29;8.83;;;3.50;;
16286;SDS011;8251;53.568;10.018;2023-08-24T05:18:55;7.77;;;3.13;;
16286;SDS011;8251;53.568;10.018;2023-08-24T05:21:22;6.00;;;3.33;;
16286;SDS011;8251;53.568;10.018;2023-08-24T05:23:49;6.97;;;3.90;;
16286;SDS011;8251;53.568;10.018;2023-08-24T05:26:18;4.33;;;3.07;;
16286;SDS011;8251;53.568;10.018;2023-08-24T05:28:49;5.87;;;2.83;;
16286;SDS011;8251;53.568;10.018;2023-08-24T05:31:16;5.53;;;3.07;;
16286;SDS011;8251;53.568;10.018;2023-08-24T05:33:43;7.97;;;2.73;;
16286;SDS011;8251;53.568;10.018;2023-08-24T05:36:10;4.50;;;2.60;;
16286;SDS011;8251;53.568;10.018;2023-08-24T05:38:37;7.87;;;2.43;;
16286;SDS011;8251;53.568;10.018;2023-08-24T05:41:09;4.93;;;2.37;;
16286;SDS011;8251;53.568;10.018;2023-08-24T05:43:38;7.83;;;2.80;;
16286;SDS011;8251;53.568;10.018;2023-08-24T05:46:04;5.13;;;2.70;;
16286;SDS011;8251;53.568;10.018;2023-08-24T05:48:31;5.83;;;3.17;;
16286;SDS011;8251;53.568;10.018;2023-08-24T05:50:58;5.53;;;2.70;;
16286;SDS011;8251;53.568;10.018;2023-08-24T05:53:25;5.10;;;2.60;;
16286;SDS011;8251;53.568;10.018;2023-08-24T05:55:56;9.07;;;2.40;;
16286;SDS011;8251;53.568;10.018;2023-08-24T05:58:24;6.70;;;2.70;;
16286;SDS011;8251;53.568;10.018;2023-08-24T06:00:56;6.17;;;2.30;;
16286;SDS011;8251;53.568;10.018;2023-08-24T06:03:24;4.23;;;2.33;;
16286;SDS011;8251;53.568;10.018;2023-08-24T06:05:51;5.90;;;2.30;;
16286;SDS011;8251;53.568;10.018;2023-08-24T06:08:18;5.83;;;2.30;;
16286;SDS011;8251;53.568;10.018;2023-08-24T06:10:45;7.50;;;2.77;;
16286;SDS011;8251;53.568;10.018;2023-08-24T06:13:14;3.30;;;2.30;;
16286;SDS011;8251;53.568;10.018;2023-08-24T06:15:50;6.30;;;2.53;;
16286;SDS011;8251;53.568;10.018;2023-08-24T06:18:24;3.63;;;2.50;;
16286;SDS011;8251;53.568;10.018;2023-08-24T06:20:51;5.73;;;2.50;;
16286;SDS011;8251;53.568;10.018;2023-08-24T06:23:18;4.10;;;2.37;;
16286;SDS011;8251;53.568;10.018;2023-08-24T06:25:46;6.77;;;1.87;;
16286;SDS011;8251;53.568;10.018;2023-08-24T06:28:13;4.67;;;1.67;;
16286;SDS011;8251;53.568;10.018;2023-08-24T06:30:40;3.43;;;1.97;;
16286;SDS011;8251;53.568;10.018;2023-08-24T06:33:09;4.03;;;1.13;;
16286;SDS011;8251;53.568;10.018;2023-08-24T06:35:38;3.73;;;1.40;;
16286;SDS011;8251;53.568;10.018;2023-08-24T06:38:07;3.83;;;1.20;;
16286;SDS011;8251;53.568;10.018;2023-08-24T06:40:35;5.00;;;1.43;;
16286;SDS011;8251;53.568;10.018;2023-08-24T06:43:01;2.10;;;1.33;;
16286;SDS011;8251;53.568;10.018;2023-08-24T06:45:29;3.00;;;1.77;;
16286;SDS011;8251;53.568;10.018;2023-08-24T06:47:57;3.60;;;2.00;;
16286;SDS011;8251;53.568;10.018;2023-08-24T06:50:31;4.50;;;2.17;;
16286;SDS011;8251;53.568;10.018;2023-08-24T06:53:04;3.27;;;1.60;;
16286;SDS011;8251;53.568;10.018;2023-08-24T06:55:32;3.00;;;2.00;;
16286;SDS011;8251;53.568;10.018;2023-08-24T06:57:59;7.27;;;2.23;;
16286;SDS011;8251;53.568;10.018;2023-08-24T07:00:25;3.97;;;1.60;;
16286;SDS011;8251;53.568;10.018;2023-08-24T07:02:53;5.03;;;1.70;;
16286;SDS011;8251;53.568;10.018;2023-08-24T07:05:21;4.40;;;2.17;;
16286;SDS011;8251;53.568;10.018;2023-08-24T07:07:54;4.53;;;2.20;;
16286;SDS011;8251;53.568;10.018;2023-08-24T07:10:30;6.63;;;2.53;;
16286;SDS011;8251;53.568;10.018;2023-08-24T07:13:06;5.27;;;2.70;;
16286;SDS011;8251;53.568;10.018;2023-08-24T07:15:40;6.07;;;2.03;;
16286;SDS011;8251;53.568;10.018;2023-08-24T07:18:07;3.90;;;2.03;;
16286;SDS011;8251;53.568;10.018;2023-08-24T07:20:34;3.05;;;1.55;;
16286;SDS011;8251;53.568;10.018;2023-08-24T07:23:01;2.70;;;1.60;;
16286;SDS011;8251;53.568;10.018;2023-08-24T07:25:29;3.17;;;1.42;;
16286;SDS011;8251;53.568;10.018;2023-08-24T07:27:56;3.45;;;1.75;;
16286;SDS011;8251;53.568;10.018;2023-08-24T07:30:24;5.43;;;1.42;;
16286;SDS011;8251;53.568;10.018;2023-08-24T07:32:52;4.18;;;1.60;;
16286;SDS011;8251;53.568;10.018;2023-08-24T07:35:19;1.40;;;1.17;;
16286;SDS011;8251;53.568;10.018;2023-08-24T07:37:49;3.50;;;1.52;;
16286;SDS011;8251;53.568;10.018;2023-08-24T07:40:16;4.20;;;1.58;;
16286;SDS011;8251;53.568;10.018;2023-08-24T07:42:45;8.85;;;5.85;;
16286;SDS011;8251;53.568;10.018;2023-08-24T07:45:12;4.95;;;1.33;;
16286;SDS011;8251;53.568;10.018;2023-08-24T07:47:39;3.30;;;1.45;;
16286;SDS011;8251;53.568;10.018;2023-08-24T07:50:07;5.57;;;1.10;;
16286;SDS011;8251;53.568;10.018;2023-08-24T07:52:36;5.10;;;1.17;;
16286;SDS011;8251;53.568;10.018;2023-08-24T07:55:04;5.35;;;1.95;;
16286;SDS011;8251;53.568;10.018;2023-08-24T07:57:33;3.47;;;1.45;;
16286;SDS011;8251;53.568;10.018;2023-08-24T08:00:06;3.72;;;1.65;;
16286;SDS011;8251;53.568;10.018;2023-08-24T08:02:36;3.50;;;1.23;;
16286;SDS011;8251;53.568;10.018;2023-08-24T08:05:03;3.83;;;1.73;;
16286;SDS011;8251;53.568;10.018;2023-08-24T08:07:32;2.03;;;1.40;;
16286;SDS011;8251;53.568;10.018;2023-08-24T08:09:59;5.03;;;1.70;;
16286;SDS011;8251;53.568;10.018;2023-08-24T08:12:26;2.60;;;1.30;;
16286;SDS011;8251;53.568;10.018;2023-08-24T08:14:59;3.35;;;1.60;;
16286;SDS011;8251;53.568;10.018;2023-08-24T08:17:31;4.93;;;2.10;;
16286;SDS011;8251;53.568;10.018;2023-08-24T08:20:00;3.67;;;1.75;;
16286;SDS011;8251;53.568;10.018;2023-08-24T08:22:27;8.90;;;1.75;;
16286;SDS011;8251;53.568;10.018;2023-08-24T08:24:54;3.28;;;1.30;;
16286;SDS011;8251;53.568;10.018;2023-08-24T08:27:21;6.38;;;1.50;;
16286;SDS011;8251;53.568;10.018;2023-08-24T08:29:49;9.25;;;1.70;;
16286;SDS011;8251;53.568;10.018;2023-08-24T08:32:16;7.13;;;1.90;;
16286;SDS011;8251;53.568;10.018;2023-08-24T08:34:45;4.25;;;1.50;;
16286;SDS011;8251;53.568;10.018;2023-08-24T08:37:12;2.80;;;1.75;;
16286;SDS011;8251;53.568;10.018;2023-08-24T08:39:39;7.22;;;1.50;;
16286;SDS011;8251;53.568;10.018;2023-08-24T08:42:10;6.88;;;1.85;;
16286;SDS011;8251;53.568;10.018;2023-08-24T08:44:38;2.17;;;1.40;;
16286;SDS011;8251;53.568;10.018;2023-08-24T08:47:07;10.73;;;2.20;;
16286;SDS011;8251;53.568;10.018;2023-08-24T08:49:35;2.97;;;1.58;;
16286;SDS011;8251;53.568;10.018;2023-08-24T08:52:04;3.08;;;1.40;;
16286;SDS011;8251;53.568;10.018;2023-08-24T08:54:32;5.05;;;1.73;;
16286;SDS011;8251;53.568;10.018;2023-08-24T08:56:59;3.25;;;1.77;;
16286;SDS011;8251;53.568;10.018;2023-08-24T08:59:27;5.43;;;1.83;;
16286;SDS011;8251;53.568;10.018;2023-08-24T09:01:55;5.82;;;1.65;;
16286;SDS011;8251;53.568;10.018;2023-08-24T09:04:24;6.03;;;1.42;;
16286;SDS011;8251;53.568;10.018;2023-08-24T09:06:54;5.60;;;1.77;;
16286;SDS011;8251;53.568;10.018;2023-08-24T09:09:28;6.72;;;1.70;;
16286;SDS011;8251;53.568;10.018;2023-08-24T09:11:55;1.98;;;1.17;;
16286;SDS011;8251;53.568;10.018;2023-08-24T09:14:22;7.22;;;2.50;;
16286;SDS011;8251;53.568;10.018;2023-08-24T09:16:49;10.88;;;2.75;;
16286;SDS011;8251;53.568;10.018;2023-08-24T09:19:17;9.93;;;3.78;;
16286;SDS011;8251;53.568;10.018;2023-08-24T09:21:49;8.95;;;2.38;;
16286;SDS011;8251;53.568;10.018;2023-08-24T09:24:31;2.08;;;1.02;;
16286;SDS011;8251;53.568;10.018;2023-08-24T09:27:05;3.25;;;1.38;;
16286;SDS011;8251;53.568;10.018;2023-08-24T09:29:48;2.22;;;1.25;;
16286;SDS011;8251;53.568;10.018;2023-08-24T09:32:27;6.18;;;2.28;;
16286;SDS011;8251;53.568;10.018;2023-08-24T09:35:06;1.92;;;1.17;;
16286;SDS011;8251;53.568;10.018;2023-08-24T09:37:40;8.80;;;1.48;;
16286;SDS011;8251;53.568;10.018;2023-08-24T09:40:23;2.40;;;1.40;;
16286;SDS011;8251;53.568;10.018;2023-08-24T09:42:59;5.70;;;1.55;;
16286;SDS011;8251;53.568;10.018;2023-08-24T09:45:34;3.95;;;1.40;;
16286;SDS011;8251;53.568;10.018;2023-08-24T09:48:07;5.82;;;1.63;;
16286;SDS011;8251;53.568;10.018;2023-08-24T09:50:40;6.88;;;1.63;;
16286;SDS011;8251;53.568;10.018;2023-08-24T09:53:16;4.20;;;1.25;;
16286;SDS011;8251;53.568;10.018;2023-08-24T09:55:52;3.40;;;1.35;;
16286;SDS011;8251;53.568;10.018;2023-08-24T09:58:31;7.22;;;1.80;;
16286;SDS011;8251;53.568;10.018;2023-08-24T10:01:06;6.57;;;3.10;;
16286;SDS011;8251;53.568;10.018;2023-08-24T10:03:38;6.63;;;2.17;;
16286;SDS011;8251;53.568;10.018;2023-08-24T10:06:06;6.03;;;2.03;;
16286;SDS011;8251;53.568;10.018;2023-08-24T10:08:43;4.10;;;1.40;;
16286;SDS011;8251;53.568;10.018;2023-08-24T10:11:19;9.80;;;3.10;;
16286;SDS011;8251;53.568;10.018;2023-08-24T10:13:53;10.05;;;1.80;;
16286;SDS011;8251;53.568;10.018;2023-08-24T10:16:28;5.22;;;1.65;;
16286;SDS011;8251;53.568;10.018;2023-08-24T10:18:57;7.28;;;3.08;;
16286;SDS011;8251;53.568;10.018;2023-08-24T10:21:29;4.78;;;2.17;;
16286;SDS011;8251;53.568;10.018;2023-08-24T10:23:59;3.58;;;1.73;;
16286;SDS011;8251;53.568;10.018;2023-08-24T10:26:35;4.78;;;2.00;;
16286;SDS011;8251;53.568;10.018;2023-08-24T10:29:09;3.13;;;1.60;;
16286;SDS011;8251;53.568;10.018;2023-08-24T10:31:42;3.05;;;1.75;;
16286;SDS011;8251;53.568;10.018;2023-08-24T10:34:17;4.03;;;1.52;;
16286;SDS011;8251;53.568;10.018;2023-08-24T10:36:47;5.05;;;1.92;;
16286;SDS011;8251;53.568;10.018;2023-08-24T10:39:17;6.88;;;2.97;;
16286;SDS011;8251;53.568;10.018;2023-08-24T10:41:53;5.75;;;2.30;;
16286;SDS011;8251;53.568;10.018;2023-08-24T10:44:21;5.07;;;2.15;;
16286;SDS011;8251;53.568;10.018;2023-08-24T10:49:32;4.68;;;1.77;;
16286;SDS011;8251;53.568;10.018;2023-08-24T10:54:48;10.52;;;1.55;;
16286;SDS011;8251;53.568;10.018;2023-08-24T10:57:22;3.10;;;1.55;;
16286;SDS011;8251;53.568;10.018;2023-08-24T10:59:59;3.65;;;2.90;;
16286;SDS011;8251;53.568;10.018;2023-08-24T11:02:31;5.45;;;3.58;;
16286;SDS011;8251;53.568;10.018;2023-08-24T11:05:15;8.88;;;2.35;;
16286;SDS011;8251;53.568;10.018;2023-08-24T11:07:50;10.38;;;1.88;;
16286;SDS011;8251;53.568;10.018;2023-08-24T11:10:22;7.57;;;2.10;;
16286;SDS011;8251;53.568;10.018;2023-08-24T11:13:11;8.90;;;2.45;;
16286;SDS011;8251;53.568;10.018;2023-08-24T11:15:40;5.43;;;1.90;;
16286;SDS011;8251;53.568;10.018;2023-08-24T11:18:14;7.57;;;2.60;;
16286;SDS011;8251;53.568;10.018;2023-08-24T11:20:52;4.50;;;2.58;;
16286;SDS011;8251;53.568;10.018;2023-08-24T11:23:27;4.22;;;2.47;;
16286;SDS011;8251;53.568;10.018;2023-08-24T11:25:54;2.10;;;1.52;;
16286;SDS011;8251;53.568;10.018;2023-08-24T11:28:25;7.22;;;1.55;;
16286;SDS011;8251;53.568;10.018;2023-08-24T11:30:53;5.30;;;2.22;;
16286;SDS011;8251;53.568;10.018;2023-08-24T11:33:30;2.45;;;1.90;;
16286;SDS011;8251;53.568;10.018;2023-08-24T11:35:58;6.65;;;2.60;;
16286;SDS011;8251;53.568;10.018;2023-08-24T11:38:35;8.90;;;4.38;;
16286;SDS011;8251;53.568;10.018;2023-08-24T11:41:09;4.40;;;2.25;;
16286;SDS011;8251;53.568;10.018;2023-08-24T11:43:38;3.78;;;2.83;;
16286;SDS011;8251;53.568;10.018;2023-08-24T11:46:05;6.28;;;2.40;;
16286;SDS011;8251;53.568;10.018;2023-08-24T11:48:32;6.35;;;2.08;;
16286;SDS011;8251;53.568;10.018;2023-08-24T11:50:58;9.45;;;2.88;;
16286;SDS011;8251;53.568;10.018;2023-08-24T11:53:26;12.93;;;3.13;;
16286;SDS011;8251;53.568;10.018;2023-08-24T11:55:54;5.43;;;2.65;;
16286;SDS011;8251;53.568;10.018;2023-08-24T11:58:22;7.82;;;1.90;;
16286;SDS011;8251;53.568;10.018;2023-08-24T12:00:55;4.85;;;2.88;;
16286;SDS011;8251;53.568;10.018;2023-08-24T12:03:27;9.20;;;2.88;;
16286;SDS011;8251;53.568;10.018;2023-08-24T12:05:59;8.73;;;3.00;;
16286;SDS011;8251;53.568;10.018;2023-08-24T12:08:36;5.15;;;1.90;;
16286;SDS011;8251;53.568;10.018;2023-08-24T12:11:09;5.82;;;2.15;;
16286;SDS011;8251;53.568;10.018;2023-08-24T12:13:37;4.45;;;2.53;;
16286;SDS011;8251;53.568;10.018;2023-08-24T12:16:05;3.95;;;2.45;;
16286;SDS011;8251;53.568;10.018;2023-08-24T12:18:35;4.60;;;2.70;;
16286;SDS011;8251;53.568;10.018;2023-08-24T12:21:12;2.60;;;2.10;;
16286;SDS011;8251;53.568;10.018;2023-08-24T12:23:39;7.72;;;2.85;;
16286;SDS011;8251;53.568;10.018;2023-08-24T12:26:06;5.72;;;2.22;;
16286;SDS011;8251;53.568;10.018;2023-08-24T12:28:33;8.35;;;2.55;;
16286;SDS011;8251;53.568;10.018;2023-08-24T12:31:00;6.57;;;1.92;;
16286;SDS011;8251;53.568;10.018;2023-08-24T12:33:30;3.65;;;2.33;;
16286;SDS011;8251;53.568;10.018;2023-08-24T12:35:57;5.07;;;2.03;;
16286;SDS011;8251;53.568;10.018;2023-08-24T12:38:27;9.65;;;3.75;;
16286;SDS011;8251;53.568;10.018;2023-08-24T12:40:57;4.90;;;2.08;;
16286;SDS011;8251;53.568;10.018;2023-08-24T12:43:24;2.45;;;2.25;;
16286;SDS011;8251;53.568;10.018;2023-08-24T12:45:51;3.85;;;2.10;;
16286;SDS011;8251;53.568;10.018;2023-08-24T12:48:18;8.98;;;2.92;;
16286;SDS011;8251;53.568;10.018;2023-08-24T12:50:46;4.60;;;2.30;;
16286;SDS011;8251;53.568;10.018;2023-08-24T12:53:13;3.83;;;2.08;;
16286;SDS011;8251;53.568;10.018;2023-08-24T12:55:40;7.68;;;2.20;;
16286;SDS011;8251;53.568;10.018;2023-08-24T12:58:07;2.67;;;1.92;;
16286;SDS011;8251;53.568;10.018;2023-08-24T13:00:34;4.32;;;2.08;;
16286;SDS011;8251;53.568;10.018;2023-08-24T13:03:01;3.83;;;1.92;;
16286;SDS011;8251;53.568;10.018;2023-08-24T13:05:28;8.27;;;2.88;;
16286;SDS011;8251;53.568;10.018;2023-08-24T13:07:56;10.82;;;2.08;;
16286;SDS011;8251;53.568;10.018;2023-08-24T13:10:23;3.13;;;1.70;;
16286;SDS011;8251;53.568;10.018;2023-08-24T13:12:51;2.88;;;1.83;;
16286;SDS011;8251;53.568;10.018;2023-08-24T13:15:18;7.68;;;1.48;;
16286;SDS011;8251;53.568;10.018;2023-08-24T13:17:48;4.55;;;2.00;;
16286;SDS011;8251;53.568;10.018;2023-08-24T13:20:15;2.50;;;1.65;;
16286;SDS011;8251;53.568;10.018;2023-08-24T13:22:42;3.53;;;1.92;;
16286;SDS011;8251;53.568;10.018;2023-08-24T13:25:11;4.03;;;1.52;;
16286;SDS011;8251;53.568;10.018;2023-08-24T13:27:38;3.05;;;1.60;;
16286;SDS011;8251;53.568;10.018;2023-08-24T13:30:05;3.05;;;1.65;;
16286;SDS011;8251;53.568;10.018;2023-08-24T13:32:32;4.43;;;1.58;;
16286;SDS011;8251;53.568;10.018;2023-08-24T13:35:00;7.05;;;1.90;;
16286;SDS011;8251;53.568;10.018;2023-08-24T13:37:27;2.15;;;1.65;;
16286;SDS011;8251;53.568;10.018;2023-08-24T13:39:54;2.95;;;2.00;;
16286;SDS011;8251;53.568;10.018;2023-08-24T13:42:22;6.97;;;4.30;;
16286;SDS011;8251;53.568;10.018;2023-08-24T13:44:49;4.10;;;1.77;;
16286;SDS011;8251;53.568;10.018;2023-08-24T13:47:16;2.85;;;1.67;;
16286;SDS011;8251;53.568;10.018;2023-08-24T13:49:44;6.88;;;1.88;;
16286;SDS011;8251;53.568;10.018;2023-08-24T13:52:11;2.53;;;2.33;;
16286;SDS011;8251;53.568;10.018;2023-08-24T13:54:38;3.78;;;1.90;;
16286;SDS011;8251;53.568;10.018;2023-08-24T13:57:05;3.72;;;2.00;;
16286;SDS011;8251;53.568;10.018;2023-08-24T13:59:33;4.93;;;1.95;;
16286;SDS011;8251;53.568;10.018;2023-08-24T14:02:00;6.03;;;2.00;;
16286;SDS011;8251;53.568;10.018;2023-08-24T14:04:28;1.70;;;1.60;;
16286;SDS011;8251;53.568;10.018;2023-08-24T14:06:55;5.10;;;1.90;;
16286;SDS011;8251;53.568;10.018;2023-08-24T14:09:22;2.25;;;1.48;;
16286;SDS011;8251;53.568;10.018;2023-08-24T14:11:49;1.83;;;1.50;;
16286;SDS011;8251;53.568;10.018;2023-08-24T14:14:16;2.50;;;1.63;;
16286;SDS011;8251;53.568;10.018;2023-08-24T14:16:45;6.15;;;1.90;;
16286;SDS011;8251;53.568;10.018;2023-08-24T14:19:12;4.63;;;1.95;;
16286;SDS011;8251;53.568;10.018;2023-08-24T14:21:38;6.65;;;1.60;;
16286;SDS011;8251;53.568;10.018;2023-08-24T14:24:05;1.95;;;1.65;;
16286;SDS011;8251;53.568;10.018;2023-08-24T14:26:32;3.15;;;1.90;;
16286;SDS011;8251;53.568;10.018;2023-08-24T14:28:59;2.92;;;1.80;;
16286;SDS011;8251;53.568;10.018;2023-08-24T14:31:26;3.60;;;1.80;;
16286;SDS011;8251;53.568;10.018;2023-08-24T14:33:59;1.85;;;1.60;;
16286;SDS011;8251;53.568;10.018;2023-08-24T14:36:28;5.80;;;1.80;;
16286;SDS011;8251;53.568;10.018;2023-08-24T14:39:01;2.67;;;2.03;;
16286;SDS011;8251;53.568;10.018;2023-08-24T14:41:35;3.38;;;1.85;;
16286;SDS011;8251;53.568;10.018;2023-08-24T14:44:02;9.32;;;2.30;;
16286;SDS011;8251;53.568;10.018;2023-08-24T14:46:29;3.90;;;1.88;;
16286;SDS011;8251;53.568;10.018;2023-08-24T14:48:59;2.97;;;2.10;;
16286;SDS011;8251;53.568;10.018;2023-08-24T14:51:26;2.30;;;1.50;;
16286;SDS011;8251;53.568;10.018;2023-08-24T14:53:52;4.30;;;2.05;;
16286;SDS011;8251;53.568;10.018;2023-08-24T14:56:19;5.15;;;2.10;;
16286;SDS011;8251;53.568;10.018;2023-08-24T14:58:46;3.58;;;1.73;;
16286;SDS011;8251;53.568;10.018;2023-08-24T15:01:13;3.15;;;1.70;;
16286;SDS011;8251;53.568;10.018;2023-08-24T15:03:40;2.20;;;2.00;;